sensor_id;sensor_type;location;lat;lon;timestamp;temperature;humidity
31695;DHT22;18289;51.330;4.946;2022-09-29T00:01:29;7.40;99.90
31695;DHT22;18289;51.330;4.946;2022-09-29T00:03:55;7.50;99.90
31695;DHT22;18289;51.330;4.946;2022-09-29T00:06:21;7.50;99.90
31695;DHT22;18289;51.330;4.946;2022-09-29T00:08:47;7.40;99.90
31695;DHT22;18289;51.330;4.946;2022-09-29T00:11:16;7.40;99.90
31695;DHT22;18289;51.330;4.946;2022-09-29T00:13:42;7.30;99.90
31695;DHT22;18289;51.330;4.946;2022-09-29T00:16:08;7.30;99.90
31695;DHT22;18289;51.330;4.946;2022-09-29T00:18:35;7.30;99.90
31695;DHT22;18289;51.330;4.946;2022-09-29T00:21:11;7.20;99.90
31695;DHT22;18289;51.330;4.946;2022-09-29T00:23:37;7.20;99.90
31695;DHT22;18289;51.330;4.946;2022-09-29T00:26:19;7.30;99.90
31695;DHT22;18289;51.330;4.946;2022-09-29T00:28:52;7.30;99.90
31695;DHT22;18289;51.330;4.946;2022-09-29T00:31:19;7.30;99.90
31695;DHT22;18289;51.330;4.946;2022-09-29T00:33:45;7.40;99.90
31695;DHT22;18289;51.330;4.946;2022-09-29T00:36:14;7.30;99.90
31695;DHT22;18289;51.330;4.946;2022-09-29T00:38:41;7.30;99.90
31695;DHT22;18289;51.330;4.946;2022-09-29T00:41:16;7.30;99.90
31695;DHT22;18289;51.330;4.946;2022-09-29T00:43:58;7.20;99.90
31695;DHT22;18289;51.330;4.946;2022-09-29T00:51:39;7.20;99.90
31695;DHT22;18289;51.330;4.946;2022-09-29T00:54:07;7.20;99.90
31695;DHT22;18289;51.330;4.946;2022-09-29T00:56:36;7.30;99.90
31695;DHT22;18289;51.330;4.946;2022-09-29T00:59:08;7.30;99.90
31695;DHT22;18289;51.330;4.946;2022-09-29T01:01:37;7.20;99.90
31695;DHT22;18289;51.330;4.946;2022-09-29T01:04:08;7.20;99.90
31695;DHT22;18289;51.330;4.946;2022-09-29T01:06:55;7.20;99.90
31695;DHT22;18289;51.330;4.946;2022-09-29T01:09:30;7.20;99.90
31695;DHT22;18289;51.330;4.946;2022-09-29T01:11:57;7.10;99.90
31695;DHT22;18289;51.330;4.946;2022-09-29T01:14:25;7.00;99.90
31695;DHT22;18289;51.330;4.946;2022-09-29T01:16:51;7.00;99.90
31695;DHT22;18289;51.330;4.946;2022-09-29T01:22:34;7.00;99.90
31695;DHT22;18289;51.330;4.946;2022-09-29T01:31:19;7.10;99.90
31695;DHT22;18289;51.330;4.946;2022-09-29T01:34:07;7.10;99.90
31695;DHT22;18289;51.330;4.946;2022-09-29T01:36:47;7.10;99.90
31695;DHT22;18289;51.330;4.946;2022-09-29T01:39:33;7.10;99.90
31695;DHT22;18289;51.330;4.946;2022-09-29T01:44:32;7.00;99.90
31695;DHT22;18289;51.330;4.946;2022-09-29T01:47:08;7.10;99.90
31695;DHT22;18289;51.330;4.946;2022-09-29T01:49:40;6.90;99.90
31695;DHT22;18289;51.330;4.946;2022-09-29T01:52:12;6.90;99.90
31695;DHT22;18289;51.330;4.946;2022-09-29T01:55:00;7.00;99.90
31695;DHT22;18289;51.330;4.946;2022-09-29T02:00:15;6.90;99.90
31695;DHT22;18289;51.330;4.946;2022-09-29T02:02:54;7.00;99.90
31695;DHT22;18289;51.330;4.946;2022-09-29T02:05:39;6.90;99.90
31695;DHT22;18289;51.330;4.946;2022-09-29T02:08:12;6.80;99.90
31695;DHT22;18289;51.330;4.946;2022-09-29T02:13:17;6.90;99.90
31695;DHT22;18289;51.330;4.946;2022-09-29T02:15:45;6.90;99.90
31695;DHT22;18289;51.330;4.946;2022-09-29T02:18:17;6.90;99.90
31695;DHT22;18289;51.330;4.946;2022-09-29T02:20:47;6.90;99.90
31695;DHT22;18289;51.330;4.946;2022-09-29T02:23:14;6.90;99.90
31695;DHT22;18289;51.330;4.946;2022-09-29T02:25:40;6.90;99.90
31695;DHT22;18289;51.330;4.946;2022-09-29T02:28:06;6.90;99.90
31695;DHT22;18289;51.330;4.946;2022-09-29T02:30:33;7.00;99.90
31695;DHT22;18289;51.330;4.946;2022-09-29T02:32:59;7.00;99.90
31695;DHT22;18289;51.330;4.946;2022-09-29T02:35:49;7.10;99.90
31695;DHT22;18289;51.330;4.946;2022-09-29T02:41:43;7.20;99.90
31695;DHT22;18289;51.330;4.946;2022-09-29T02:53:29;7.10;99.90
31695;DHT22;18289;51.330;4.946;2022-09-29T02:55:58;7.00;99.90
31695;DHT22;18289;51.330;4.946;2022-09-29T03:01:23;6.90;99.90
31695;DHT22;18289;51.330;4.946;2022-09-29T03:03:48;6.90;99.90
31695;DHT22;18289;51.330;4.946;2022-09-29T03:06:15;6.90;99.90
31695;DHT22;18289;51.330;4.946;2022-09-29T03:08:43;6.70;99.90
31695;DHT22;18289;51.330;4.946;2022-09-29T03:11:08;6.70;99.90
31695;DHT22;18289;51.330;4.946;2022-09-29T03:13:34;6.60;99.90
31695;DHT22;18289;51.330;4.946;2022-09-29T03:16:00;6.60;99.90
31695;DHT22;18289;51.330;4.946;2022-09-29T03:18:26;6.60;99.90
31695;DHT22;18289;51.330;4.946;2022-09-29T03:20:53;6.60;99.90
31695;DHT22;18289;51.330;4.946;2022-09-29T03:23:19;6.60;99.90
31695;DHT22;18289;51.330;4.946;2022-09-29T03:25:45;6.70;99.90
31695;DHT22;18289;51.330;4.946;2022-09-29T03:28:11;6.60;99.90
31695;DHT22;18289;51.330;4.946;2022-09-29T03:30:36;6.70;99.90
31695;DHT22;18289;51.330;4.946;2022-09-29T03:33:02;6.70;99.90
31695;DHT22;18289;51.330;4.946;2022-09-29T03:35:28;6.70;99.90
31695;DHT22;18289;51.330;4.946;2022-09-29T03:38:00;6.70;99.90
31695;DHT22;18289;51.330;4.946;2022-09-29T03:40:26;6.70;99.90
31695;DHT22;18289;51.330;4.946;2022-09-29T03:42:52;6.60;99.90
31695;DHT22;18289;51.330;4.946;2022-09-29T03:45:18;6.60;99.90
31695;DHT22;18289;51.330;4.946;2022-09-29T03:47:43;6.60;99.90
31695;DHT22;18289;51.330;4.946;2022-09-29T03:50:09;6.60;99.90
31695;DHT22;18289;51.330;4.946;2022-09-29T03:52:35;6.40;99.90
31695;DHT22;18289;51.330;4.946;2022-09-29T03:55:01;6.50;99.90
31695;DHT22;18289;51.330;4.946;2022-09-29T03:57:27;6.40;99.90
31695;DHT22;18289;51.330;4.946;2022-09-29T03:59:52;6.40;99.90
31695;DHT22;18289;51.330;4.946;2022-09-29T04:02:18;6.40;99.90
31695;DHT22;18289;51.330;4.946;2022-09-29T04:04:45;6.40;99.90
31695;DHT22;18289;51.330;4.946;2022-09-29T04:07:11;6.30;99.90
31695;DHT22;18289;51.330;4.946;2022-09-29T04:09:36;6.30;99.90
31695;DHT22;18289;51.330;4.946;2022-09-29T04:12:03;6.20;99.90
31695;DHT22;18289;51.330;4.946;2022-09-29T04:14:28;6.20;99.90
31695;DHT22;18289;51.330;4.946;2022-09-29T04:16:54;6.30;99.90
31695;DHT22;18289;51.330;4.946;2022-09-29T04:19:20;6.20;99.90
31695;DHT22;18289;51.330;4.946;2022-09-29T04:21:45;6.20;99.90
31695;DHT22;18289;51.330;4.946;2022-09-29T04:24:11;6.20;99.90
31695;DHT22;18289;51.330;4.946;2022-09-29T04:26:37;6.20;99.90
31695;DHT22;18289;51.330;4.946;2022-09-29T04:29:04;6.20;99.90
31695;DHT22;18289;51.330;4.946;2022-09-29T04:31:30;6.20;99.90
31695;DHT22;18289;51.330;4.946;2022-09-29T04:33:56;6.20;99.90
31695;DHT22;18289;51.330;4.946;2022-09-29T04:36:21;6.10;99.90
31695;DHT22;18289;51.330;4.946;2022-09-29T04:38:47;6.10;99.90
31695;DHT22;18289;51.330;4.946;2022-09-29T04:41:15;6.10;99.90
31695;DHT22;18289;51.330;4.946;2022-09-29T04:43:40;6.20;99.90
31695;DHT22;18289;51.330;4.946;2022-09-29T04:46:07;6.20;99.90
31695;DHT22;18289;51.330;4.946;2022-09-29T04:48:34;6.20;99.90
31695;DHT22;18289;51.330;4.946;2022-09-29T04:51:00;6.20;99.90
31695;DHT22;18289;51.330;4.946;2022-09-29T04:53:26;6.30;99.90
31695;DHT22;18289;51.330;4.946;2022-09-29T04:55:52;6.20;99.90
31695;DHT22;18289;51.330;4.946;2022-09-29T04:58:18;6.20;99.90
31695;DHT22;18289;51.330;4.946;2022-09-29T05:00:43;6.20;99.90
31695;DHT22;18289;51.330;4.946;2022-09-29T05:03:09;6.30;99.90
31695;DHT22;18289;51.330;4.946;2022-09-29T05:05:35;6.20;99.90
31695;DHT22;18289;51.330;4.946;2022-09-29T05:08:03;6.40;99.90
31695;DHT22;18289;51.330;4.946;2022-09-29T05:10:29;6.20;99.90
31695;DHT22;18289;51.330;4.946;2022-09-29T05:12:55;6.30;99.90
31695;DHT22;18289;51.330;4.946;2022-09-29T05:15:21;6.30;99.90
31695;DHT22;18289;51.330;4.946;2022-09-29T05:17:47;6.30;99.90
31695;DHT22;18289;51.330;4.946;2022-09-29T05:20:13;6.30;99.90
31695;DHT22;18289;51.330;4.946;2022-09-29T05:22:41;6.20;99.90
31695;DHT22;18289;51.330;4.946;2022-09-29T05:25:07;6.20;99.90
31695;DHT22;18289;51.330;4.946;2022-09-29T05:27:34;6.20;99.90
31695;DHT22;18289;51.330;4.946;2022-09-29T05:30:00;6.20;99.90
31695;DHT22;18289;51.330;4.946;2022-09-29T05:32:26;6.10;99.90
31695;DHT22;18289;51.330;4.946;2022-09-29T05:34:52;6.10;99.90
31695;DHT22;18289;51.330;4.946;2022-09-29T05:37:18;6.00;99.90
31695;DHT22;18289;51.330;4.946;2022-09-29T05:39:43;6.00;99.90
31695;DHT22;18289;51.330;4.946;2022-09-29T05:42:10;6.10;99.90
31695;DHT22;18289;51.330;4.946;2022-09-29T05:44:36;6.00;99.90
31695;DHT22;18289;51.330;4.946;2022-09-29T05:47:02;6.00;99.90
31695;DHT22;18289;51.330;4.946;2022-09-29T05:49:28;6.00;99.90
31695;DHT22;18289;51.330;4.946;2022-09-29T05:51:56;6.00;99.90
31695;DHT22;18289;51.330;4.946;2022-09-29T05:54:22;6.00;99.90
31695;DHT22;18289;51.330;4.946;2022-09-29T05:56:48;6.00;99.90
31695;DHT22;18289;51.330;4.946;2022-09-29T05:59:14;6.10;99.90
31695;DHT22;18289;51.330;4.946;2022-09-29T06:01:40;6.10;99.90
31695;DHT22;18289;51.330;4.946;2022-09-29T06:04:06;6.10;99.90
31695;DHT22;18289;51.330;4.946;2022-09-29T06:06:31;6.10;99.90
31695;DHT22;18289;51.330;4.946;2022-09-29T06:08:58;6.10;99.90
31695;DHT22;18289;51.330;4.946;2022-09-29T06:11:27;6.10;99.90
31695;DHT22;18289;51.330;4.946;2022-09-29T06:13:54;6.20;99.90
31695;DHT22;18289;51.330;4.946;2022-09-29T06:16:24;6.10;99.90
31695;DHT22;18289;51.330;4.946;2022-09-29T06:18:51;6.20;99.90
31695;DHT22;18289;51.330;4.946;2022-09-29T06:21:21;6.10;99.90
31695;DHT22;18289;51.330;4.946;2022-09-29T06:23:51;6.20;99.90
31695;DHT22;18289;51.330;4.946;2022-09-29T06:26:18;6.40;99.90
31695;DHT22;18289;51.330;4.946;2022-09-29T06:28:44;6.40;99.90
31695;DHT22;18289;51.330;4.946;2022-09-29T06:31:15;6.30;99.90
31695;DHT22;18289;51.330;4.946;2022-09-29T06:33:41;6.30;99.90
31695;DHT22;18289;51.330;4.946;2022-09-29T06:39:00;6.40;99.90
31695;DHT22;18289;51.330;4.946;2022-09-29T06:41:26;6.40;99.90
31695;DHT22;18289;51.330;4.946;2022-09-29T06:43:53;6.50;99.90
31695;DHT22;18289;51.330;4.946;2022-09-29T06:46:18;6.60;99.90
31695;DHT22;18289;51.330;4.946;2022-09-29T06:48:44;6.70;99.90
31695;DHT22;18289;51.330;4.946;2022-09-29T06:51:10;6.70;99.90
31695;DHT22;18289;51.330;4.946;2022-09-29T06:53:36;6.80;99.90
31695;DHT22;18289;51.330;4.946;2022-09-29T06:56:02;6.90;99.90
31695;DHT22;18289;51.330;4.946;2022-09-29T06:58:28;6.90;99.90
31695;DHT22;18289;51.330;4.946;2022-09-29T07:00:54;7.00;99.90
31695;DHT22;18289;51.330;4.946;2022-09-29T07:03:20;7.00;99.90
31695;DHT22;18289;51.330;4.946;2022-09-29T07:05:46;7.00;99.90
31695;DHT22;18289;51.330;4.946;2022-09-29T07:08:11;7.10;99.90
31695;DHT22;18289;51.330;4.946;2022-09-29T07:10:37;7.10;99.90
31695;DHT22;18289;51.330;4.946;2022-09-29T07:13:03;7.20;99.90
31695;DHT22;18289;51.330;4.946;2022-09-29T07:15:30;7.30;99.90
31695;DHT22;18289;51.330;4.946;2022-09-29T07:18:00;7.40;99.90
31695;DHT22;18289;51.330;4.946;2022-09-29T07:20:27;7.40;99.90
31695;DHT22;18289;51.330;4.946;2022-09-29T07:22:53;7.50;99.90
31695;DHT22;18289;51.330;4.946;2022-09-29T07:25:20;7.60;99.90
31695;DHT22;18289;51.330;4.946;2022-09-29T07:27:46;7.60;99.90
31695;DHT22;18289;51.330;4.946;2022-09-29T07:30:12;7.70;99.90
31695;DHT22;18289;51.330;4.946;2022-09-29T07:32:38;7.70;99.90
31695;DHT22;18289;51.330;4.946;2022-09-29T07:35:05;7.80;99.90
31695;DHT22;18289;51.330;4.946;2022-09-29T07:37:31;7.90;99.90
31695;DHT22;18289;51.330;4.946;2022-09-29T07:39:57;8.00;99.90
31695;DHT22;18289;51.330;4.946;2022-09-29T07:42:23;8.10;99.90
31695;DHT22;18289;51.330;4.946;2022-09-29T07:44:49;8.10;99.90
31695;DHT22;18289;51.330;4.946;2022-09-29T07:47:14;8.20;99.90
31695;DHT22;18289;51.330;4.946;2022-09-29T07:49:40;8.30;99.90
31695;DHT22;18289;51.330;4.946;2022-09-29T07:52:06;8.40;99.90
31695;DHT22;18289;51.330;4.946;2022-09-29T07:54:33;8.30;99.90
31695;DHT22;18289;51.330;4.946;2022-09-29T07:56:59;8.50;99.90
31695;DHT22;18289;51.330;4.946;2022-09-29T07:59:27;8.50;99.90
31695;DHT22;18289;51.330;4.946;2022-09-29T08:01:53;8.60;99.90
31695;DHT22;18289;51.330;4.946;2022-09-29T08:04:19;8.60;99.90
31695;DHT22;18289;51.330;4.946;2022-09-29T08:06:44;8.70;99.90
31695;DHT22;18289;51.330;4.946;2022-09-29T08:09:11;8.80;99.90
31695;DHT22;18289;51.330;4.946;2022-09-29T08:11:39;8.90;99.90
31695;DHT22;18289;51.330;4.946;2022-09-29T08:14:06;8.90;99.90
31695;DHT22;18289;51.330;4.946;2022-09-29T08:16:32;9.00;99.90
31695;DHT22;18289;51.330;4.946;2022-09-29T08:18:59;9.10;99.90
31695;DHT22;18289;51.330;4.946;2022-09-29T08:21:26;9.20;99.90
31695;DHT22;18289;51.330;4.946;2022-09-29T08:23:51;9.20;99.90
31695;DHT22;18289;51.330;4.946;2022-09-29T08:26:19;9.30;99.90
31695;DHT22;18289;51.330;4.946;2022-09-29T08:28:46;9.40;99.90
31695;DHT22;18289;51.330;4.946;2022-09-29T08:31:17;9.50;99.90
31695;DHT22;18289;51.330;4.946;2022-09-29T08:33:48;9.60;99.90
31695;DHT22;18289;51.330;4.946;2022-09-29T08:36:15;9.80;99.90
31695;DHT22;18289;51.330;4.946;2022-09-29T08:38:45;10.00;99.90
31695;DHT22;18289;51.330;4.946;2022-09-29T08:44:04;10.40;99.90
31695;DHT22;18289;51.330;4.946;2022-09-29T08:46:38;10.40;99.90
31695;DHT22;18289;51.330;4.946;2022-09-29T08:49:18;10.60;99.90
31695;DHT22;18289;51.330;4.946;2022-09-29T08:51:49;10.70;99.90
31695;DHT22;18289;51.330;4.946;2022-09-29T08:54:28;10.70;99.90
31695;DHT22;18289;51.330;4.946;2022-09-29T08:56:54;10.80;99.90
31695;DHT22;18289;51.330;4.946;2022-09-29T08:59:20;11.00;99.90
31695;DHT22;18289;51.330;4.946;2022-09-29T09:02:07;11.10;99.90
31695;DHT22;18289;51.330;4.946;2022-09-29T09:10:47;11.50;99.90
31695;DHT22;18289;51.330;4.946;2022-09-29T09:16:47;11.80;99.90
31695;DHT22;18289;51.330;4.946;2022-09-29T09:25:00;12.00;99.90
31695;DHT22;18289;51.330;4.946;2022-09-29T09:27:34;12.10;99.90
31695;DHT22;18289;51.330;4.946;2022-09-29T09:30:11;12.20;99.90
31695;DHT22;18289;51.330;4.946;2022-09-29T09:32:44;12.30;99.90
31695;DHT22;18289;51.330;4.946;2022-09-29T09:37:41;12.50;99.90
31695;DHT22;18289;51.330;4.946;2022-09-29T09:40:26;12.40;99.90
31695;DHT22;18289;51.330;4.946;2022-09-29T09:43:05;12.50;99.90
31695;DHT22;18289;51.330;4.946;2022-09-29T09:45:59;12.60;99.90
31695;DHT22;18289;51.330;4.946;2022-09-29T09:48:35;12.70;99.90
31695;DHT22;18289;51.330;4.946;2022-09-29T09:51:41;12.80;99.90
31695;DHT22;18289;51.330;4.946;2022-09-29T09:54:16;12.90;99.90
31695;DHT22;18289;51.330;4.946;2022-09-29T10:02:30;13.40;99.90
31695;DHT22;18289;51.330;4.946;2022-09-29T10:04:56;13.80;99.90
31695;DHT22;18289;51.330;4.946;2022-09-29T10:07:24;14.30;99.90
31695;DHT22;18289;51.330;4.946;2022-09-29T10:09:50;15.00;99.90
31695;DHT22;18289;51.330;4.946;2022-09-29T10:12:19;15.30;99.90
31695;DHT22;18289;51.330;4.946;2022-09-29T10:15:00;16.00;99.90
31695;DHT22;18289;51.330;4.946;2022-09-29T10:17:34;16.90;99.90
31695;DHT22;18289;51.330;4.946;2022-09-29T10:20:07;16.90;99.90
31695;DHT22;18289;51.330;4.946;2022-09-29T10:22:33;16.80;99.90
31695;DHT22;18289;51.330;4.946;2022-09-29T10:27:41;17.10;99.90
31695;DHT22;18289;51.330;4.946;2022-09-29T10:30:32;17.10;99.90
31695;DHT22;18289;51.330;4.946;2022-09-29T10:33:00;17.20;99.90
31695;DHT22;18289;51.330;4.946;2022-09-29T10:35:32;17.50;99.90
31695;DHT22;18289;51.330;4.946;2022-09-29T10:38:07;18.60;99.90
31695;DHT22;18289;51.330;4.946;2022-09-29T10:40:56;20.30;99.90
31695;DHT22;18289;51.330;4.946;2022-09-29T10:43:38;22.60;99.90
31695;DHT22;18289;51.330;4.946;2022-09-29T10:46:08;23.50;99.90
31695;DHT22;18289;51.330;4.946;2022-09-29T10:49:23;23.90;99.90
31695;DHT22;18289;51.330;4.946;2022-09-29T10:52:02;22.70;99.90
31695;DHT22;18289;51.330;4.946;2022-09-29T10:54:33;21.60;99.90
31695;DHT22;18289;51.330;4.946;2022-09-29T10:57:10;20.60;99.90
31695;DHT22;18289;51.330;4.946;2022-09-29T10:59:45;21.10;99.90
31695;DHT22;18289;51.330;4.946;2022-09-29T11:02:24;23.60;99.90
31695;DHT22;18289;51.330;4.946;2022-09-29T11:04:51;24.10;99.90
31695;DHT22;18289;51.330;4.946;2022-09-29T11:07:18;25.20;99.90
31695;DHT22;18289;51.330;4.946;2022-09-29T11:09:44;26.50;99.90
31695;DHT22;18289;51.330;4.946;2022-09-29T11:12:36;29.30;99.90
31695;DHT22;18289;51.330;4.946;2022-09-29T11:15:24;29.90;99.90
31695;DHT22;18289;51.330;4.946;2022-09-29T11:17:51;32.00;97.50
31695;DHT22;18289;51.330;4.946;2022-09-29T11:20:17;32.30;94.20
31695;DHT22;18289;51.330;4.946;2022-09-29T11:31:29;31.40;87.50
31695;DHT22;18289;51.330;4.946;2022-09-29T11:40:07;29.80;89.30
31695;DHT22;18289;51.330;4.946;2022-09-29T11:45:46;29.50;90.60
31695;DHT22;18289;51.330;4.946;2022-09-29T11:56:23;23.40;93.60
31695;DHT22;18289;51.330;4.946;2022-09-29T11:59:30;22.50;94.40
31695;DHT22;18289;51.330;4.946;2022-09-29T12:16:20;24.40;98.40
31695;DHT22;18289;51.330;4.946;2022-09-29T12:18:50;26.70;95.60
31695;DHT22;18289;51.330;4.946;2022-09-29T12:21:36;28.00;92.90
31695;DHT22;18289;51.330;4.946;2022-09-29T12:24:09;29.50;90.80
31695;DHT22;18289;51.330;4.946;2022-09-29T12:26:37;30.70;90.70
31695;DHT22;18289;51.330;4.946;2022-09-29T12:31:42;31.00;83.80
31695;DHT22;18289;51.330;4.946;2022-09-29T12:37:05;32.40;86.90
31695;DHT22;18289;51.330;4.946;2022-09-29T12:42:55;31.30;78.20
31695;DHT22;18289;51.330;4.946;2022-09-29T12:45:27;30.40;81.20
31695;DHT22;18289;51.330;4.946;2022-09-29T12:48:13;30.50;82.50
31695;DHT22;18289;51.330;4.946;2022-09-29T12:51:00;30.80;86.50
31695;DHT22;18289;51.330;4.946;2022-09-29T12:53:36;31.60;77.20
31695;DHT22;18289;51.330;4.946;2022-09-29T12:56:06;32.70;83.00
31695;DHT22;18289;51.330;4.946;2022-09-29T12:58:49;32.50;79.20
31695;DHT22;18289;51.330;4.946;2022-09-29T13:01:25;32.60;79.70
31695;DHT22;18289;51.330;4.946;2022-09-29T13:17:43;33.00;73.10
31695;DHT22;18289;51.330;4.946;2022-09-29T13:20:37;32.60;66.90
31695;DHT22;18289;51.330;4.946;2022-09-29T13:26:11;28.20;70.70
31695;DHT22;18289;51.330;4.946;2022-09-29T13:31:13;27.90;72.60
31695;DHT22;18289;51.330;4.946;2022-09-29T13:33:44;27.50;71.70
31695;DHT22;18289;51.330;4.946;2022-09-29T13:36:24;26.00;75.70
31695;DHT22;18289;51.330;4.946;2022-09-29T13:38:56;25.30;81.90
31695;DHT22;18289;51.330;4.946;2022-09-29T13:59:39;32.10;68.90
31695;DHT22;18289;51.330;4.946;2022-09-29T14:04:55;32.80;66.60
31695;DHT22;18289;51.330;4.946;2022-09-29T14:07:45;32.20;66.50
31695;DHT22;18289;51.330;4.946;2022-09-29T14:10:46;32.60;69.40
31695;DHT22;18289;51.330;4.946;2022-09-29T14:13:26;32.10;64.60
31695;DHT22;18289;51.330;4.946;2022-09-29T14:18:45;31.60;66.60
31695;DHT22;18289;51.330;4.946;2022-09-29T14:21:43;31.70;66.60
31695;DHT22;18289;51.330;4.946;2022-09-29T14:23:59;32.10;66.30
31695;DHT22;18289;51.330;4.946;2022-09-29T14:31:50;32.30;65.40
31695;DHT22;18289;51.330;4.946;2022-09-29T14:34:18;32.60;66.60
31695;DHT22;18289;51.330;4.946;2022-09-29T14:36:45;32.20;63.10
31695;DHT22;18289;51.330;4.946;2022-09-29T14:39:13;32.00;64.20
31695;DHT22;18289;51.330;4.946;2022-09-29T14:41:43;32.30;64.80
31695;DHT22;18289;51.330;4.946;2022-09-29T14:44:12;32.50;61.40
31695;DHT22;18289;51.330;4.946;2022-09-29T14:47:03;32.30;65.20
31695;DHT22;18289;51.330;4.946;2022-09-29T14:50:07;32.40;64.80
31695;DHT22;18289;51.330;4.946;2022-09-29T15:01:29;30.40;64.90
31695;DHT22;18289;51.330;4.946;2022-09-29T15:04:03;29.00;66.90
31695;DHT22;18289;51.330;4.946;2022-09-29T15:06:29;27.20;67.90
31695;DHT22;18289;51.330;4.946;2022-09-29T15:09:16;25.90;71.10
31695;DHT22;18289;51.330;4.946;2022-09-29T15:11:47;24.40;71.40
31695;DHT22;18289;51.330;4.946;2022-09-29T15:27:28;19.90;85.80
31695;DHT22;18289;51.330;4.946;2022-09-29T15:29:57;19.60;87.00
31695;DHT22;18289;51.330;4.946;2022-09-29T15:32:26;19.30;89.30
31695;DHT22;18289;51.330;4.946;2022-09-29T15:34:58;19.10;89.90
31695;DHT22;18289;51.330;4.946;2022-09-29T15:37:25;18.70;91.30
31695;DHT22;18289;51.330;4.946;2022-09-29T15:39:51;18.50;91.80
31695;DHT22;18289;51.330;4.946;2022-09-29T15:42:21;18.40;91.90
31695;DHT22;18289;51.330;4.946;2022-09-29T15:45:07;18.20;92.20
31695;DHT22;18289;51.330;4.946;2022-09-29T15:47:36;18.20;94.00
31695;DHT22;18289;51.330;4.946;2022-09-29T15:50:15;18.00;94.40
31695;DHT22;18289;51.330;4.946;2022-09-29T15:52:41;17.80;94.10
31695;DHT22;18289;51.330;4.946;2022-09-29T15:55:12;17.60;94.50
31695;DHT22;18289;51.330;4.946;2022-09-29T16:05:34;17.20;97.10
31695;DHT22;18289;51.330;4.946;2022-09-29T16:10:30;17.00;98.80
31695;DHT22;18289;51.330;4.946;2022-09-29T16:13:05;16.90;99.10
31695;DHT22;18289;51.330;4.946;2022-09-29T16:15:46;17.00;99.70
31695;DHT22;18289;51.330;4.946;2022-09-29T16:18:58;16.90;98.40
31695;DHT22;18289;51.330;4.946;2022-09-29T16:20:58;16.80;99.90
31695;DHT22;18289;51.330;4.946;2022-09-29T16:31:51;16.50;99.90
31695;DHT22;18289;51.330;4.946;2022-09-29T16:34:22;16.50;99.90
31695;DHT22;18289;51.330;4.946;2022-09-29T16:39:15;16.40;99.90
31695;DHT22;18289;51.330;4.946;2022-09-29T16:41:42;16.30;99.90
31695;DHT22;18289;51.330;4.946;2022-09-29T16:44:19;16.20;99.90
31695;DHT22;18289;51.330;4.946;2022-09-29T16:49:22;16.20;99.90
31695;DHT22;18289;51.330;4.946;2022-09-29T16:51:49;16.20;99.90
31695;DHT22;18289;51.330;4.946;2022-09-29T16:54:22;16.10;99.90
31695;DHT22;18289;51.330;4.946;2022-09-29T16:57:27;16.00;99.90
31695;DHT22;18289;51.330;4.946;2022-09-29T16:59:58;15.90;99.90
31695;DHT22;18289;51.330;4.946;2022-09-29T17:02:25;15.90;99.90
31695;DHT22;18289;51.330;4.946;2022-09-29T17:04:53;15.80;99.90
31695;DHT22;18289;51.330;4.946;2022-09-29T17:07:25;15.80;99.90
31695;DHT22;18289;51.330;4.946;2022-09-29T17:09:58;15.80;99.90
31695;DHT22;18289;51.330;4.946;2022-09-29T17:12:28;15.70;99.90
31695;DHT22;18289;51.330;4.946;2022-09-29T17:14:54;15.60;99.90
31695;DHT22;18289;51.330;4.946;2022-09-29T17:17:23;15.50;99.90
31695;DHT22;18289;51.330;4.946;2022-09-29T17:19:50;15.40;99.90
31695;DHT22;18289;51.330;4.946;2022-09-29T17:22:34;15.30;99.90
31695;DHT22;18289;51.330;4.946;2022-09-29T17:25:02;15.10;99.90
31695;DHT22;18289;51.330;4.946;2022-09-29T17:27:28;15.00;99.90
31695;DHT22;18289;51.330;4.946;2022-09-29T17:30:19;14.90;99.90
31695;DHT22;18289;51.330;4.946;2022-09-29T17:32:47;14.90;99.90
31695;DHT22;18289;51.330;4.946;2022-09-29T17:35:15;14.70;99.90
31695;DHT22;18289;51.330;4.946;2022-09-29T17:37:42;14.70;99.90
31695;DHT22;18289;51.330;4.946;2022-09-29T17:42:55;14.30;99.90
31695;DHT22;18289;51.330;4.946;2022-09-29T17:45:23;14.20;99.90
31695;DHT22;18289;51.330;4.946;2022-09-29T17:47:50;14.20;99.90
31695;DHT22;18289;51.330;4.946;2022-09-29T17:50:26;14.00;99.90
31695;DHT22;18289;51.330;4.946;2022-09-29T17:52:54;13.90;99.90
31695;DHT22;18289;51.330;4.946;2022-09-29T17:55:20;13.90;99.90
31695;DHT22;18289;51.330;4.946;2022-09-29T17:57:51;13.80;99.90
31695;DHT22;18289;51.330;4.946;2022-09-29T18:00:24;13.70;99.90
31695;DHT22;18289;51.330;4.946;2022-09-29T18:02:51;13.50;99.90
31695;DHT22;18289;51.330;4.946;2022-09-29T18:05:21;13.50;99.90
31695;DHT22;18289;51.330;4.946;2022-09-29T18:07:52;13.40;99.90
31695;DHT22;18289;51.330;4.946;2022-09-29T18:12:46;13.30;99.90
31695;DHT22;18289;51.330;4.946;2022-09-29T18:15:12;13.20;99.90
31695;DHT22;18289;51.330;4.946;2022-09-29T18:17:37;13.10;99.90
31695;DHT22;18289;51.330;4.946;2022-09-29T18:20:14;13.10;99.90
31695;DHT22;18289;51.330;4.946;2022-09-29T18:22:41;12.90;99.90
31695;DHT22;18289;51.330;4.946;2022-09-29T18:25:09;12.90;99.90
31695;DHT22;18289;51.330;4.946;2022-09-29T18:27:35;12.80;99.90
31695;DHT22;18289;51.330;4.946;2022-09-29T18:30:05;12.60;99.90
31695;DHT22;18289;51.330;4.946;2022-09-29T18:32:31;12.60;99.90
31695;DHT22;18289;51.330;4.946;2022-09-29T18:34:58;12.60;99.90
31695;DHT22;18289;51.330;4.946;2022-09-29T18:37:23;12.40;99.90
31695;DHT22;18289;51.330;4.946;2022-09-29T18:39:49;12.30;99.90
31695;DHT22;18289;51.330;4.946;2022-09-29T18:42:15;12.20;99.90
31695;DHT22;18289;51.330;4.946;2022-09-29T18:44:41;12.20;99.90
31695;DHT22;18289;51.330;4.946;2022-09-29T18:47:09;12.20;99.90
31695;DHT22;18289;51.330;4.946;2022-09-29T18:49:36;12.30;99.90
31695;DHT22;18289;51.330;4.946;2022-09-29T18:52:02;12.20;99.90
31695;DHT22;18289;51.330;4.946;2022-09-29T18:54:27;12.20;99.90
31695;DHT22;18289;51.330;4.946;2022-09-29T18:56:53;12.10;99.90
31695;DHT22;18289;51.330;4.946;2022-09-29T18:59:19;12.00;99.90
31695;DHT22;18289;51.330;4.946;2022-09-29T19:01:44;11.80;99.90
31695;DHT22;18289;51.330;4.946;2022-09-29T19:04:10;11.70;99.90
31695;DHT22;18289;51.330;4.946;2022-09-29T19:06:36;11.70;99.90
31695;DHT22;18289;51.330;4.946;2022-09-29T19:09:01;11.70;99.90
31695;DHT22;18289;51.330;4.946;2022-09-29T19:11:27;11.60;99.90
31695;DHT22;18289;51.330;4.946;2022-09-29T19:13:53;11.60;99.90
31695;DHT22;18289;51.330;4.946;2022-09-29T19:16:21;11.50;99.90
31695;DHT22;18289;51.330;4.946;2022-09-29T19:18:48;11.50;99.90
31695;DHT22;18289;51.330;4.946;2022-09-29T19:21:16;11.60;99.90
31695;DHT22;18289;51.330;4.946;2022-09-29T19:23:42;11.60;99.90
31695;DHT22;18289;51.330;4.946;2022-09-29T19:26:17;11.50;99.90
31695;DHT22;18289;51.330;4.946;2022-09-29T19:28:44;11.50;99.90
31695;DHT22;18289;51.330;4.946;2022-09-29T19:31:15;11.40;99.90
31695;DHT22;18289;51.330;4.946;2022-09-29T19:33:44;11.40;99.90
31695;DHT22;18289;51.330;4.946;2022-09-29T19:36:14;11.30;99.90